River Pirate — TCUS9 — position and weather

sailwx.info

Track history (hours):
 
Tides and Currents Weather Stations Pressure Air Temp Water Temp Dewpoint Dewpoint Depression Visibility Wind Speed Wind Dir Waves Ship Positions

River Pirate

Last reported at 2017-Oct-20 13:29 UTC. Time now 2017-Nov-24 18:41 UTC.
Position N 36°46' E 031°28'.
Warning: this ship's position is 35 days out of date.

Length 29 m.

Type: Passenger vessel. MMSI: 271043198.

Date/timePositionNaut miles runAvg speedWind from/ knotsBaromVisibWave heightAir tempDewpointWater temp
2017-Oct-20 13:29N 36°46' E 031°28'1 3.0
2017-Oct-20 13:00N 36°45' E 031°29'0 0.0
2017-Oct-20 12:30N 36°45' E 031°29'0 0.0
2017-Oct-20 11:57N 36°45' E 031°29'4 6.5
2017-Oct-20 11:15N 36°41' E 031°32'2 7.7
2017-Oct-20 11:00N 36°40' E 031°34'8 0.4
2017-Oct-19 13:47N 36°46' E 031°28'1 2.4
2017-Oct-19 13:30N 36°45' E 031°28'1 1.4
2017-Oct-19 12:59N 36°45' E 031°29'0 0.0
2017-Oct-19 12:27N 36°45' E 031°29'3 5.7
2017-Oct-19 12:00N 36°42' E 031°30'4 8.5
2017-Oct-19 11:30N 36°40' E 031°35'8 0.4
2017-Oct-18 14:33N 36°46' E 031°28'0 0.0
2017-Oct-18 13:57N 36°46' E 031°28'0 0.0
2017-Oct-18 13:24N 36°46' E 031°28'0 0.7
2017-Oct-18 13:00N 36°45' E 031°28'1 2.2
2017-Oct-18 12:29N 36°45' E 031°29'0 0.0
2017-Oct-18 11:56N 36°45' E 031°29'0 0.0
2017-Oct-18 11:29N 36°45' E 031°29'  
Track history (hours):
 
Tides and Currents Weather Stations Pressure Air Temp Water Temp Dewpoint Dewpoint Depression Visibility Wind Speed Wind Dir Waves Ship Positions

River Pirate

Last reported at 2017-Oct-20 13:29 UTC. Time now 2017-Nov-24 18:41 UTC.
Position N 36°46' E 031°28'.
Warning: this ship's position is 35 days out of date.

Length 29 m.

Type: Passenger vessel. MMSI: 271043198.

Date/timePositionNaut miles runAvg speedWind from/ knotsBaromVisibWave heightAir tempDewpointWater temp
2017-Oct-20 13:29N 36°46' E 031°28'1 3.0
2017-Oct-20 13:00N 36°45' E 031°29'0 0.0
2017-Oct-20 12:30N 36°45' E 031°29'0 0.0
2017-Oct-20 11:57N 36°45' E 031°29'4 6.5
2017-Oct-20 11:15N 36°41' E 031°32'2 7.7
2017-Oct-20 11:00N 36°40' E 031°34'8 0.4
2017-Oct-19 13:47N 36°46' E 031°28'1 2.4
2017-Oct-19 13:30N 36°45' E 031°28'1 1.4
2017-Oct-19 12:59N 36°45' E 031°29'0 0.0
2017-Oct-19 12:27N 36°45' E 031°29'3 5.7
2017-Oct-19 12:00N 36°42' E 031°30'4 8.5
2017-Oct-19 11:30N 36°40' E 031°35'8 0.4
2017-Oct-18 14:33N 36°46' E 031°28'0 0.0
2017-Oct-18 13:57N 36°46' E 031°28'0 0.0
2017-Oct-18 13:24N 36°46' E 031°28'0 0.7
2017-Oct-18 13:00N 36°45' E 031°28'1 2.2
2017-Oct-18 12:29N 36°45' E 031°29'0 0.0
2017-Oct-18 11:56N 36°45' E 031°29'0 0.0
2017-Oct-18 11:29N 36°45' E 031°29'  

Dump ship's entire track history